createdAt,value
2019-03-12T00:03:10.604Z,8.70
2019-03-12T00:08:16.165Z,8.80
2019-03-12T00:13:21.629Z,8.70
2019-03-12T00:18:28.624Z,8.70
2019-03-12T00:23:34.341Z,8.80
2019-03-12T00:28:40.210Z,8.80
2019-03-12T00:33:46.093Z,8.80
2019-03-12T00:38:51.706Z,8.80
2019-03-12T00:43:57.730Z,8.80
2019-03-12T00:49:03.298Z,8.80
2019-03-12T00:54:08.894Z,8.80
2019-03-12T00:59:14.639Z,8.80
2019-03-12T01:04:20.240Z,8.90
2019-03-12T01:09:25.853Z,8.80
2019-03-12T01:14:31.328Z,8.90
2019-03-12T01:19:36.828Z,8.90
2019-03-12T01:24:42.419Z,8.90
2019-03-12T01:29:47.999Z,8.80
2019-03-12T01:34:53.661Z,8.70
2019-03-12T01:39:59.325Z,8.70
2019-03-12T01:45:07.270Z,8.70
2019-03-12T01:50:12.882Z,8.70
2019-03-12T01:55:18.384Z,8.70
2019-03-12T02:00:23.910Z,8.70
2019-03-12T02:05:29.470Z,8.70
2019-03-12T02:10:34.877Z,8.70
2019-03-12T02:15:40.208Z,8.70
2019-03-12T02:20:45.851Z,8.60
2019-03-12T02:25:51.314Z,8.60
2019-03-12T02:30:56.972Z,8.50
2019-03-12T02:36:02.644Z,8.50
2019-03-12T02:41:08.332Z,8.40
2019-03-12T02:46:14.021Z,8.30
2019-03-12T02:51:19.685Z,8.20
2019-03-12T02:56:25.059Z,8.20
2019-03-12T03:01:30.774Z,8.10
2019-03-12T03:07:04.309Z,8.20
2019-03-12T03:12:09.861Z,8.20
2019-03-12T03:17:16.425Z,8.30
2019-03-12T03:22:22.046Z,8.30
2019-03-12T03:27:29.307Z,8.30
2019-03-12T03:32:34.527Z,8.30
2019-03-12T03:37:40.071Z,8.30
2019-03-12T03:42:45.614Z,8.30
2019-03-12T03:47:51.270Z,8.30
2019-03-12T03:52:56.675Z,8.30
2019-03-12T03:58:02.318Z,8.30
2019-03-12T04:03:08.017Z,8.30
2019-03-12T04:08:13.955Z,8.30
2019-03-12T04:13:19.718Z,8.30
2019-03-12T04:18:25.403Z,8.30
2019-03-12T04:23:30.974Z,8.20
2019-03-12T04:28:36.754Z,8.30
2019-03-12T04:34:14.744Z,8.30
2019-03-12T04:39:20.141Z,8.30
2019-03-12T04:44:25.576Z,8.30
2019-03-12T04:49:31.041Z,8.40
2019-03-12T04:54:36.627Z,8.30
2019-03-12T04:59:42.182Z,8.30
2019-03-12T05:04:47.843Z,8.30
2019-03-12T05:09:53.398Z,8.30
2019-03-12T05:14:59.059Z,8.30
2019-03-12T05:20:04.935Z,8.20
2019-03-12T05:25:11.227Z,8.20
2019-03-12T05:30:17.218Z,8.20
2019-03-12T05:35:22.754Z,8.20
2019-03-12T05:40:28.442Z,8.20
2019-03-12T05:45:34.008Z,8.20
2019-03-12T05:50:39.371Z,8.20
2019-03-12T05:55:44.818Z,8.20
2019-03-12T06:00:50.394Z,8.20
2019-03-12T06:05:55.950Z,8.20
2019-03-12T06:11:01.299Z,8.30
2019-03-12T06:16:06.878Z,8.30
2019-03-12T06:21:12.358Z,8.30
2019-03-12T06:26:17.885Z,8.30
2019-03-12T06:31:42.333Z,8.30
2019-03-12T06:36:51.879Z,8.40
2019-03-12T06:42:07.756Z,8.40
2019-03-12T06:47:23.360Z,8.40
2019-03-12T06:52:48.693Z,8.40
2019-03-12T06:58:35.502Z,8.40
2019-03-12T07:04:03.106Z,8.40
2019-03-12T07:09:30.654Z,8.40
2019-03-12T07:14:44.870Z,8.40
2019-03-12T07:20:13.443Z,8.50
2019-03-12T07:25:34.426Z,8.60
2019-03-12T07:30:57.407Z,8.50
2019-03-12T07:36:15.219Z,8.50
2019-03-12T07:41:32.728Z,8.50
2019-03-12T07:47:06.150Z,8.50
2019-03-12T07:52:37.573Z,8.60
2019-03-12T07:58:02.025Z,8.60
2019-03-12T08:03:25.462Z,8.60
2019-03-12T08:08:44.421Z,8.70
2019-03-12T08:14:09.175Z,8.70
2019-03-12T08:19:39.762Z,8.70
2019-03-12T08:24:51.471Z,8.80
2019-03-12T08:30:15.997Z,8.80
2019-03-12T08:35:55.405Z,8.80
2019-03-12T08:41:12.065Z,8.90
2019-03-12T08:46:54.873Z,8.90
2019-03-12T08:52:18.417Z,9.00
2019-03-12T08:57:52.222Z,9.00
2019-03-12T09:03:12.535Z,9.10
2019-03-12T09:08:52.407Z,9.10
2019-03-12T09:14:28.940Z,9.10
2019-03-12T09:19:52.210Z,9.10
2019-03-12T09:25:14.538Z,9.10
2019-03-12T09:30:39.679Z,9.00
2019-03-12T09:36:04.192Z,9.00
2019-03-12T09:41:28.639Z,9.10
2019-03-12T09:46:46.485Z,9.10
2019-03-12T09:51:57.292Z,9.00
2019-03-12T09:57:09.591Z,9.10
2019-03-12T10:02:26.599Z,9.00
2019-03-12T10:07:49.214Z,9.10
2019-03-12T10:13:19.748Z,9.10
2019-03-12T10:18:50.976Z,9.00
2019-03-12T10:24:06.878Z,9.00
2019-03-12T10:29:31.418Z,9.00
2019-03-12T10:35:05.281Z,9.00
2019-03-12T10:40:29.446Z,9.00
2019-03-12T10:45:52.947Z,9.00
2019-03-12T10:50:58.706Z,8.90
2019-03-12T10:56:04.617Z,8.90
2019-03-12T11:01:10.431Z,8.90
2019-03-12T11:06:15.888Z,9.00
2019-03-12T11:11:21.558Z,9.00
2019-03-12T11:16:27.322Z,9.10
2019-03-12T11:21:33.032Z,9.10
2019-03-12T11:26:38.693Z,9.10
2019-03-12T11:31:44.544Z,9.10
2019-03-12T11:36:50.288Z,9.10
2019-03-12T11:41:56.075Z,9.10
2019-03-12T11:47:02.770Z,9.10
2019-03-12T11:52:08.423Z,9.20
2019-03-12T11:57:14.053Z,9.20
2019-03-12T12:02:19.780Z,9.20
2019-03-12T12:07:25.126Z,9.20
2019-03-12T12:12:31.656Z,9.20
2019-03-12T12:17:37.270Z,9.20
2019-03-12T12:22:42.995Z,9.20
2019-03-12T12:27:48.594Z,9.30
2019-03-12T12:32:54.173Z,9.30
2019-03-12T12:37:59.924Z,9.30
2019-03-12T12:43:05.521Z,9.40
2019-03-12T12:48:11.180Z,9.40
2019-03-12T12:53:16.679Z,9.40
2019-03-12T12:58:22.364Z,9.50
2019-03-12T13:03:28.089Z,9.50
2019-03-12T13:08:33.500Z,9.50
2019-03-12T13:13:39.128Z,9.50
2019-03-12T13:18:44.712Z,9.60
2019-03-12T13:23:50.098Z,9.60
2019-03-12T13:28:55.665Z,9.40
2019-03-12T13:34:01.219Z,9.00
2019-03-12T13:39:08.262Z,8.60
2019-03-12T13:44:13.810Z,8.40
2019-03-12T13:49:19.517Z,8.20
2019-03-12T13:54:25.194Z,8.00
2019-03-12T13:59:30.857Z,7.80
2019-03-12T14:04:36.570Z,7.60
2019-03-12T14:09:42.115Z,7.50
2019-03-12T14:14:47.791Z,7.20
2019-03-12T14:19:53.393Z,7.10
2019-03-12T14:24:58.973Z,7.10
2019-03-12T14:30:04.431Z,7.00
2019-03-12T14:35:10.033Z,7.00
2019-03-12T14:40:15.695Z,6.90
2019-03-12T14:45:26.432Z,6.80
2019-03-12T14:50:32.007Z,6.80
2019-03-12T14:55:37.539Z,6.80
2019-03-12T15:00:42.991Z,6.80
2019-03-12T15:05:48.584Z,6.70
2019-03-12T15:10:54.053Z,6.60
2019-03-12T15:15:59.484Z,6.70
2019-03-12T15:21:05.389Z,6.50
2019-03-12T15:26:11.081Z,6.40
2019-03-12T15:31:16.744Z,6.40
2019-03-12T15:36:22.379Z,6.50
2019-03-12T15:41:27.959Z,6.50
2019-03-12T15:46:33.521Z,6.50
2019-03-12T15:51:39.083Z,6.40
2019-03-12T15:56:44.681Z,6.50
2019-03-12T16:01:50.392Z,6.50
2019-03-12T16:07:01.146Z,6.50
2019-03-12T16:12:03.251Z,6.60
2019-03-12T16:17:08.858Z,6.70
2019-03-12T16:22:14.655Z,6.70
2019-03-12T16:27:20.109Z,6.70
2019-03-12T16:32:25.790Z,6.70
2019-03-12T16:37:31.629Z,6.60
2019-03-12T16:42:37.512Z,6.60
2019-03-12T16:47:43.119Z,6.60
2019-03-12T16:52:48.905Z,6.60
2019-03-12T16:57:54.605Z,6.60
2019-03-12T17:03:00.093Z,6.60
2019-03-12T17:08:05.992Z,6.70
2019-03-12T17:13:11.804Z,6.70
2019-03-12T17:18:17.574Z,6.80
2019-03-12T17:23:23.014Z,6.70
2019-03-12T17:28:28.657Z,6.70
2019-03-12T17:33:34.154Z,6.70
2019-03-12T17:38:46.589Z,6.70
2019-03-12T17:43:46.920Z,6.70
2019-03-12T17:48:52.477Z,6.60
2019-03-12T17:53:58.248Z,6.60
2019-03-12T17:59:03.633Z,6.60
2019-03-12T18:04:09.400Z,6.50
2019-03-12T18:09:15.940Z,6.50
2019-03-12T18:14:21.500Z,6.50
2019-03-12T18:19:27.192Z,6.50
2019-03-12T18:24:32.535Z,6.60
2019-03-12T18:29:38.143Z,6.50
2019-03-12T18:34:43.824Z,6.30
2019-03-12T18:39:49.323Z,6.30
2019-03-12T18:44:54.944Z,6.20
2019-03-12T18:50:00.433Z,6.10
2019-03-12T18:55:06.552Z,6.30
2019-03-12T19:00:12.913Z,6.30
2019-03-12T19:05:18.498Z,6.20
2019-03-12T19:10:24.040Z,6.10
2019-03-12T19:15:29.726Z,6.10
2019-03-12T19:20:44.551Z,6.10
2019-03-12T19:25:50.056Z,6.00
2019-03-12T19:31:05.411Z,6.10
2019-03-12T19:36:10.911Z,6.00
2019-03-12T19:41:16.253Z,6.00
2019-03-12T19:46:21.970Z,6.00
2019-03-12T19:51:27.589Z,6.00
2019-03-12T19:56:32.889Z,6.00
2019-03-12T20:01:39.254Z,6.10
2019-03-12T20:07:05.027Z,6.20
2019-03-12T20:12:52.614Z,6.10
2019-03-12T20:18:42.145Z,6.00
2019-03-12T20:24:28.371Z,6.00
2019-03-12T20:30:10.387Z,6.00
2019-03-12T20:35:49.320Z,6.00
2019-03-12T20:41:49.282Z,6.10
2019-03-12T20:47:30.455Z,6.10
2019-03-12T20:53:07.600Z,6.00
2019-03-12T20:59:12.245Z,6.00
2019-03-12T21:05:09.682Z,6.00
2019-03-12T21:10:54.643Z,5.90
2019-03-12T21:16:37.024Z,6.00
2019-03-12T21:22:10.399Z,5.90
2019-03-12T21:27:46.554Z,5.90
2019-03-12T21:32:52.208Z,5.90
2019-03-12T21:37:57.535Z,6.00
2019-03-12T21:43:03.210Z,6.00
2019-03-12T21:48:08.664Z,6.00
2019-03-12T21:53:14.560Z,5.90
2019-03-12T21:58:20.091Z,5.80
2019-03-12T22:03:25.668Z,5.90
2019-03-12T22:08:31.248Z,5.80
2019-03-12T22:13:36.951Z,5.80
2019-03-12T22:18:42.487Z,5.80
2019-03-12T22:23:49.466Z,5.90
2019-03-12T22:28:55.270Z,5.80
2019-03-12T22:34:00.787Z,5.80
2019-03-12T22:39:07.194Z,5.80
2019-03-12T22:44:12.777Z,5.80
2019-03-12T22:49:18.430Z,5.80
2019-03-12T22:54:23.898Z,5.90
2019-03-12T22:59:29.250Z,5.90
2019-03-12T23:04:34.929Z,5.90
2019-03-12T23:09:40.459Z,5.90
2019-03-12T23:14:45.824Z,6.00
2019-03-12T23:19:51.307Z,6.00
2019-03-12T23:24:56.740Z,6.00
2019-03-12T23:30:02.198Z,6.10
2019-03-12T23:35:08.292Z,6.00
2019-03-12T23:40:14.949Z,6.00
2019-03-12T23:45:20.573Z,6.00
2019-03-12T23:50:27.891Z,6.00
2019-03-12T23:55:33.601Z,6.00
